Time;durP1;ratioP1;P1;durP2;ratioP2;P2;SDS_P1;SDS_P2;PMS_P1;PMS_P2;Temp;Humidity;BMP_temperature;BMP_pressure;BME280_temperature;BME280_humidity;BME280_pressure;Samples;Min_cycle;Max_cycle;Signal;HPM_P1;HPM_P2
2022/10/18 00:01:47;;;;;;;;;6.00;6.00;20.10;99.90;;;;;;5073267;27;8845;-57
2022/10/18 00:04:18;;;;;;;;;5.00;5.00;20.10;99.90;;;;;;5089760;28;8829;-59
2022/10/18 00:06:50;;;;;;;;;5.00;5.00;20.00;99.90;;;;;;5089169;27;8857;-57
2022/10/18 00:09:20;;;;;;;;;6.00;6.00;19.70;99.90;;;;;;5094335;27;8833;-57
2022/10/18 00:11:54;;;;;;;;;6.25;6.25;19.60;99.90;;;;;;5097897;28;8837;-58
2022/10/18 00:14:24;;;;;;;;;8.50;7.25;19.60;99.90;;;;;;5094828;27;8833;-59
2022/10/18 00:16:55;;;;;;;;;6.75;6.75;19.50;99.90;;;;;;5092441;28;8846;-53
2022/10/18 00:19:25;;;;;;;;;6.00;6.00;19.50;99.90;;;;;;5060455;28;8823;-52
2022/10/18 00:22:00;;;;;;;;;8.00;8.00;19.50;99.90;;;;;;5092761;27;8954;-58
2022/10/18 00:24:29;;;;;;;;;3.00;3.00;19.50;99.90;;;;;;5090281;27;8962;-57
2022/10/18 00:26:58;;;;;;;;;4.75;4.75;19.40;99.90;;;;;;5055410;28;8824;-51
2022/10/18 00:29:31;;;;;;;;;6.00;6.00;19.60;99.90;;;;;;5074468;28;8879;-51
2022/10/18 00:32:04;;;;;;;;;7.00;7.00;19.60;99.90;;;;;;5054382;27;8865;-55
2022/10/18 00:34:40;;;;;;;;;6.75;6.75;19.80;99.90;;;;;;5072276;28;8831;-54
2022/10/18 00:37:09;;;;;;;;;7.25;6.00;19.70;99.90;;;;;;5093376;27;8848;-53
2022/10/18 00:39:41;;;;;;;;;3.00;3.00;19.70;99.90;;;;;;5090352;27;8843;-49
2022/10/18 00:42:20;;;;;;;;;5.25;5.25;19.80;99.90;;;;;;5074380;27;8821;-59
2022/10/18 00:44:49;;;;;;;;;6.00;6.00;19.70;99.90;;;;;;5088078;28;8883;-57
2022/10/18 00:47:22;;;;;;;;;6.00;4.75;19.50;99.90;;;;;;5091609;27;8981;-57
2022/10/18 00:49:55;;;;;;;;;0.50;0.50;19.70;99.90;;;;;;5095494;28;9501;-55
2022/10/18 00:52:33;;;;;;;;;4.75;4.75;19.50;99.90;;;;;;5090872;27;8856;-48
2022/10/18 00:55:05;;;;;;;;;4.75;4.75;19.30;99.90;;;;;;5073564;28;9008;-51
2022/10/18 00:57:38;;;;;;;;;5.33;5.33;19.20;99.90;;;;;;5090958;27;8846;-57
2022/10/18 01:00:09;;;;;;;;;5.75;5.75;19.30;99.90;;;;;;5078061;28;9024;-57
2022/10/18 01:02:46;;;;;;;;;2.00;2.00;19.20;99.90;;;;;;5095410;27;8851;-57
2022/10/18 01:05:19;;;;;;;;;4.00;4.00;19.20;99.90;;;;;;5093584;28;8870;-57
2022/10/18 01:08:22;;;;;;;;;4.67;4.67;19.20;99.90;;;;;;5087579;27;8943;-58
2022/10/18 01:11:28;;;;;;;;;5.00;5.00;19.20;99.90;;;;;;5092856;28;9007;-55
2022/10/18 01:14:11;;;;;;;;;1.25;1.25;19.00;99.90;;;;;;5091535;28;8986;-57
2022/10/18 01:16:50;;;;;;;;;4.00;4.00;19.00;99.90;;;;;;5084731;28;8838;-54
2022/10/18 01:19:45;;;;;;;;;4.00;4.00;18.90;99.90;;;;;;5085320;28;8829;-53
2022/10/18 01:22:26;;;;;;;;;4.00;4.00;18.70;99.90;;;;;;5090774;28;9002;-56
2022/10/18 01:25:06;;;;;;;;;2.67;2.67;18.70;99.90;;;;;;5089976;27;8989;-56
2022/10/18 01:27:54;;;;;;;;;4.00;4.00;18.80;99.90;;;;;;5087555;28;8993;-52
2022/10/18 01:30:39;;;;;;;;;3.00;3.00;18.60;99.90;;;;;;5090299;28;8980;-53
2022/10/18 01:33:31;;;;;;;;;5.67;4.00;18.50;99.90;;;;;;5094635;28;9230;-54
2022/10/18 01:36:22;;;;;;;;;1.67;1.67;18.50;99.90;;;;;;5100133;27;9000;-57
2022/10/18 01:38:57;;;;;;;;;3.00;3.00;18.70;99.90;;;;;;5099877;27;8986;-59
2022/10/18 01:41:28;;;;;;;;;3.00;3.00;18.70;99.90;;;;;;5073814;28;9679;-52
2022/10/18 01:44:02;;;;;;;;;4.00;4.00;18.60;99.90;;;;;;5096240;27;9060;-53
2022/10/18 01:46:32;;;;;;;;;3.00;3.00;18.50;99.90;;;;;;5087464;27;9159;-52
2022/10/18 01:49:04;;;;;;;;;4.67;4.67;18.60;99.90;;;;;;5096478;27;8994;-55
2022/10/18 01:51:34;;;;;;;;;3.67;3.67;18.60;99.90;;;;;;5095667;27;9054;-55
2022/10/18 01:54:06;;;;;;;;;2.00;2.00;18.50;99.90;;;;;;5093340;27;9006;-53
2022/10/18 01:56:50;;;;;;;;;3.00;3.00;18.50;99.90;;;;;;5089263;28;9084;-55
2022/10/18 01:59:57;;;;;;;;;4.00;4.00;18.60;99.90;;;;;;5079861;27;9274;-57
2022/10/18 02:02:40;;;;;;;;;3.00;3.00;18.50;99.90;;;;;;5096951;27;9884;-54
2022/10/18 02:05:48;;;;;;;;;3.67;3.33;18.60;99.90;;;;;;5096818;28;9193;-53
2022/10/18 02:08:38;;;;;;;;;3.67;3.67;18.70;99.90;;;;;;5099933;27;9166;-54
2022/10/18 02:11:15;;;;;;;;;1.00;1.00;18.70;99.90;;;;;;5091053;27;9143;-57
2022/10/18 02:13:57;;;;;;;;;4.00;4.00;18.60;99.90;;;;;;5088693;28;9108;-57
2022/10/18 02:16:36;;;;;;;;;3.33;3.33;18.70;99.90;;;;;;5094860;27;9166;-53
2022/10/18 02:19:13;;;;;;;;;2.00;2.00;18.60;99.90;;;;;;5095310;27;9876;-53
2022/10/18 02:21:46;;;;;;;;;3.33;3.33;18.60;99.90;;;;;;5089171;27;9037;-56
2022/10/18 02:24:18;;;;;;;;;2.00;2.00;18.60;99.90;;;;;;5092422;28;9000;-53
2022/10/18 02:26:49;;;;;;;;;3.33;3.33;18.50;99.90;;;;;;5073841;27;9088;-56
2022/10/18 02:29:25;;;;;;;;;3.33;3.33;18.50;99.90;;;;;;5089184;28;9084;-54
2022/10/18 02:32:20;;;;;;;;;1.33;1.33;18.50;99.90;;;;;;5083554;27;9123;-57
2022/10/18 02:35:00;;;;;;;;;2.00;2.00;18.40;99.90;;;;;;5086057;27;9176;-57
2022/10/18 02:37:35;;;;;;;;;2.00;2.00;18.50;99.90;;;;;;5092899;27;9872;-54
2022/10/18 02:40:09;;;;;;;;;1.67;1.67;18.40;99.90;;;;;;5092769;27;9043;-52
2022/10/18 02:42:48;;;;;;;;;2.33;2.33;18.40;99.90;;;;;;5073256;28;9090;-58
2022/10/18 02:45:18;;;;;;;;;1.33;1.33;18.50;99.90;;;;;;5077604;28;9083;-54
2022/10/18 02:47:50;;;;;;;;;2.00;2.00;18.40;99.90;;;;;;5092452;27;9080;-57
2022/10/18 02:50:19;;;;;;;;;3.33;2.00;18.30;99.90;;;;;;5093248;27;9002;-56
2022/10/18 02:52:50;;;;;;;;;2.33;2.33;18.30;99.90;;;;;;5095731;27;9080;-57
2022/10/18 02:55:22;;;;;;;;;0.00;0.00;18.30;99.90;;;;;;5094909;27;9126;-56
2022/10/18 02:57:51;;;;;;;;;3.00;3.00;18.20;99.90;;;;;;5094771;27;9088;-52
2022/10/18 03:00:21;;;;;;;;;2.00;2.00;18.20;99.90;;;;;;5092677;27;9352;-50
2022/10/18 03:02:52;;;;;;;;;1.67;1.67;18.20;99.90;;;;;;5074051;28;9006;-55
2022/10/18 03:05:26;;;;;;;;;1.00;1.00;18.10;99.90;;;;;;5088174;28;8941;-55
2022/10/18 03:07:57;;;;;;;;;0.00;0.00;17.90;99.90;;;;;;5074517;28;9083;-55
2022/10/18 03:10:27;;;;;;;;;1.67;1.67;17.80;99.90;;;;;;5091656;27;9029;-55
2022/10/18 03:12:56;;;;;;;;;2.00;2.00;18.00;99.90;;;;;;5078265;28;9004;-56
2022/10/18 03:15:27;;;;;;;;;1.33;1.33;17.90;99.90;;;;;;5092602;27;9161;-56
2022/10/18 03:17:59;;;;;;;;;2.67;2.33;17.80;99.90;;;;;;5071925;28;9170;-54
2022/10/18 03:20:29;;;;;;;;;1.33;1.33;17.90;99.90;;;;;;5095453;27;9073;-54
2022/10/18 03:23:00;;;;;;;;;1.67;1.67;17.70;99.90;;;;;;5071795;28;9463;-54
2022/10/18 03:25:29;;;;;;;;;2.00;2.00;17.80;99.90;;;;;;5090788;27;9105;-54
2022/10/18 03:28:00;;;;;;;;;1.33;1.33;17.70;99.90;;;;;;5094177;27;9154;-56
2022/10/18 03:30:30;;;;;;;;;2.00;2.00;17.60;99.90;;;;;;5091305;27;9008;-53
2022/10/18 03:33:02;;;;;;;;;1.67;1.67;17.60;99.90;;;;;;5093665;28;9085;-52
2022/10/18 03:35:35;;;;;;;;;2.00;2.00;17.60;99.90;;;;;;5087703;27;9047;-53
2022/10/18 03:38:05;;;;;;;;;2.67;2.67;17.80;99.90;;;;;;5090954;28;9056;-53
2022/10/18 03:40:35;;;;;;;;;2.00;2.00;17.80;99.90;;;;;;5095678;27;9208;-55
2022/10/18 03:43:05;;;;;;;;;1.67;1.67;17.80;99.90;;;;;;5096771;27;8913;-56
2022/10/18 03:45:37;;;;;;;;;2.00;2.00;17.80;99.90;;;;;;5093070;27;8998;-56
2022/10/18 03:48:06;;;;;;;;;1.33;1.33;17.70;99.90;;;;;;5090498;27;9143;-56
2022/10/18 03:50:39;;;;;;;;;1.67;1.00;17.80;99.90;;;;;;5091497;27;9222;-56
2022/10/18 03:53:10;;;;;;;;;1.67;1.67;17.70;99.90;;;;;;5091477;28;9310;-56
2022/10/18 03:55:40;;;;;;;;;1.00;1.00;17.70;99.90;;;;;;5063423;28;9119;-55
2022/10/18 03:58:11;;;;;;;;;1.00;1.00;17.80;99.90;;;;;;5050264;28;9252;-55
2022/10/18 04:00:41;;;;;;;;;1.00;1.00;17.70;99.90;;;;;;5051472;28;9159;-57
2022/10/18 04:03:15;;;;;;;;;1.67;1.67;17.70;99.90;;;;;;5055008;28;9442;-59
2022/10/18 04:05:46;;;;;;;;;1.00;1.00;17.60;99.90;;;;;;5069012;28;9152;-56
2022/10/18 04:08:17;;;;;;;;;0.67;0.67;17.60;99.90;;;;;;5052447;28;8995;-52
2022/10/18 04:10:47;;;;;;;;;2.00;2.00;17.60;99.90;;;;;;5048544;28;9027;-55
2022/10/18 04:13:19;;;;;;;;;1.00;1.00;17.40;99.90;;;;;;5054456;28;9204;-52
2022/10/18 04:15:50;;;;;;;;;1.00;1.00;17.50;99.90;;;;;;5049819;28;9229;-56
2022/10/18 04:18:20;;;;;;;;;2.00;2.00;17.50;99.90;;;;;;5048123;28;10563;-58
2022/10/18 04:20:50;;;;;;;;;1.33;1.33;17.50;99.90;;;;;;5053145;28;9153;-56
2022/10/18 04:23:22;;;;;;;;;1.00;1.00;17.50;99.90;;;;;;5049156;28;9153;-53
2022/10/18 04:25:53;;;;;;;;;2.00;2.00;17.50;99.90;;;;;;5049445;28;9076;-54
2022/10/18 04:28:24;;;;;;;;;1.00;1.00;17.40;99.90;;;;;;5047228;28;9879;-53
2022/10/18 04:30:54;;;;;;;;;1.00;1.00;17.40;99.90;;;;;;5053575;28;9162;-53
2022/10/18 04:33:25;;;;;;;;;1.00;1.00;17.20;99.90;;;;;;5053097;28;9080;-52
2022/10/18 04:35:56;;;;;;;;;1.00;1.00;17.30;99.90;;;;;;5049339;28;9252;-58
2022/10/18 04:38:27;;;;;;;;;1.00;1.00;17.20;99.90;;;;;;5055602;28;9363;-58
2022/10/18 04:40:56;;;;;;;;;1.00;1.00;17.30;99.90;;;;;;5051082;28;9189;-57
2022/10/18 04:43:29;;;;;;;;;2.67;2.00;17.20;99.90;;;;;;5052541;28;9165;-56
2022/10/18 04:46:00;;;;;;;;;1.00;1.00;17.10;99.90;;;;;;5054238;28;9236;-56
2022/10/18 04:48:30;;;;;;;;;1.00;1.00;17.10;99.90;;;;;;5061719;28;9390;-54
2022/10/18 04:51:06;;;;;;;;;1.33;1.33;17.00;99.90;;;;;;5047927;28;9504;-54
2022/10/18 04:53:37;;;;;;;;;1.00;1.00;16.90;99.90;;;;;;5050508;28;9495;-55
2022/10/18 04:56:07;;;;;;;;;2.00;0.00;16.90;99.90;;;;;;5069962;28;9181;-55
2022/10/18 04:58:40;;;;;;;;;1.00;1.00;17.00;99.90;;;;;;5097961;27;9297;-56
2022/10/18 05:01:10;;;;;;;;;1.00;1.00;17.00;99.90;;;;;;5095490;27;9261;-54
2022/10/18 05:03:41;;;;;;;;;1.00;1.00;17.00;99.90;;;;;;5076925;28;9300;-56
2022/10/18 05:06:12;;;;;;;;;1.00;1.00;17.10;99.90;;;;;;5075490;27;9369;-54
2022/10/18 05:08:44;;;;;;;;;1.00;1.00;17.10;99.90;;;;;;5078535;28;9977;-53
2022/10/18 05:11:15;;;;;;;;;1.00;1.00;16.90;99.90;;;;;;5099920;28;9305;-56
2022/10/18 05:13:45;;;;;;;;;1.00;1.00;17.10;99.90;;;;;;5077342;28;9213;-56
2022/10/18 05:16:19;;;;;;;;;1.00;1.00;17.00;99.90;;;;;;5076150;28;10289;-57
2022/10/18 05:18:50;;;;;;;;;0.67;0.67;17.00;99.90;;;;;;5088796;28;9718;-55
2022/10/18 05:21:21;;;;;;;;;0.67;0.67;16.90;99.90;;;;;;5071522;27;9513;-57
2022/10/18 05:23:53;;;;;;;;;2.00;2.00;16.90;99.90;;;;;;5087634;28;9568;-57
2022/10/18 05:26:23;;;;;;;;;1.00;1.00;16.90;99.90;;;;;;5097191;28;9984;-56
2022/10/18 05:28:54;;;;;;;;;1.00;1.00;16.80;99.90;;;;;;5100952;27;9154;-56
2022/10/18 05:31:23;;;;;;;;;1.00;1.00;16.90;99.90;;;;;;5095195;28;9342;-54
2022/10/18 05:33:53;;;;;;;;;0.00;0.00;16.80;99.90;;;;;;5100997;27;10143;-54
2022/10/18 05:36:24;;;;;;;;;0.00;0.00;16.70;99.90;;;;;;5096431;28;9375;-56
2022/10/18 05:38:54;;;;;;;;;0.00;0.00;16.70;99.90;;;;;;5095918;27;9149;-56
2022/10/18 05:41:32;;;;;;;;;1.00;1.00;16.80;99.90;;;;;;5086407;28;9293;-53
2022/10/18 05:44:05;;;;;;;;;0.67;0.67;16.50;99.90;;;;;;5100561;27;9320;-49
2022/10/18 05:46:37;;;;;;;;;1.00;1.00;16.40;99.90;;;;;;5089935;28;9457;-54
2022/10/18 05:49:08;;;;;;;;;1.00;1.00;16.40;99.90;;;;;;5089663;27;9433;-50
2022/10/18 05:51:37;;;;;;;;;1.00;1.00;16.40;99.90;;;;;;5090867;28;9443;-56
2022/10/18 05:54:09;;;;;;;;;2.00;2.00;16.40;99.90;;;;;;5091379;28;9365;-53
2022/10/18 05:56:39;;;;;;;;;1.00;1.00;16.50;99.90;;;;;;5093285;28;9430;-55
2022/10/18 05:59:10;;;;;;;;;0.00;0.00;16.40;99.90;;;;;;5093468;27;9548;-55
2022/10/18 06:01:44;;;;;;;;;0.00;0.00;16.20;99.90;;;;;;5086646;28;9906;-53
2022/10/18 06:04:16;;;;;;;;;0.00;0.00;16.30;99.90;;;;;;5091837;27;10014;-54
2022/10/18 06:06:45;;;;;;;;;0.33;0.33;16.40;99.90;;;;;;5088658;28;9435;-52
2022/10/18 06:09:16;;;;;;;;;1.00;1.00;16.50;99.90;;;;;;5076851;28;9615;-52
2022/10/18 06:11:47;;;;;;;;;1.00;1.00;16.10;99.90;;;;;;5093125;28;10413;-57
2022/10/18 06:14:17;;;;;;;;;1.00;1.00;16.20;99.90;;;;;;5089295;28;10158;-56
2022/10/18 06:16:46;;;;;;;;;1.00;1.00;16.30;99.90;;;;;;5069251;28;9384;-56
2022/10/18 06:19:17;;;;;;;;;1.00;1.00;16.20;99.90;;;;;;5073989;27;10398;-57
2022/10/18 06:21:49;;;;;;;;;1.00;1.00;16.20;99.90;;;;;;5072415;28;9693;-57
2022/10/18 06:24:20;;;;;;;;;0.00;0.00;16.20;99.90;;;;;;5094259;27;9738;-54
2022/10/18 06:26:50;;;;;;;;;0.67;0.67;16.30;99.90;;;;;;5089740;28;10821;-57
2022/10/18 06:29:20;;;;;;;;;1.00;1.00;16.20;99.90;;;;;;5092323;27;9544;-56
2022/10/18 06:31:50;;;;;;;;;0.33;0.33;16.10;99.90;;;;;;5089067;28;10245;-58
2022/10/18 06:34:22;;;;;;;;;1.00;1.00;16.20;99.90;;;;;;5093711;27;9585;-57
2022/10/18 06:36:52;;;;;;;;;0.00;0.00;16.10;99.90;;;;;;5093830;27;9545;-56
2022/10/18 06:39:26;;;;;;;;;1.00;1.00;16.10;99.90;;;;;;5095095;27;9433;-57
2022/10/18 06:41:55;;;;;;;;;1.00;1.00;16.00;99.90;;;;;;5074571;28;9685;-54
2022/10/18 06:44:25;;;;;;;;;0.33;0.33;16.10;99.90;;;;;;5080863;28;9599;-50
2022/10/18 06:47:00;;;;;;;;;1.00;1.00;15.90;99.90;;;;;;5089652;27;9563;-52
2022/10/18 06:49:29;;;;;;;;;1.00;1.00;16.00;99.90;;;;;;5099788;27;9525;-55
2022/10/18 06:52:01;;;;;;;;;1.00;1.00;16.00;99.90;;;;;;5098166;27;9600;-53
2022/10/18 06:54:32;;;;;;;;;1.00;1.00;15.90;99.90;;;;;;5094272;27;9697;-52
2022/10/18 06:57:02;;;;;;;;;1.00;1.00;16.10;99.90;;;;;;5095571;27;9649;-53
2022/10/18 06:59:35;;;;;;;;;1.25;1.25;15.90;99.90;;;;;;5096437;28;9686;-52
2022/10/18 07:02:05;;;;;;;;;1.25;1.00;15.80;99.90;;;;;;5094461;28;9772;-53
2022/10/18 07:04:36;;;;;;;;;0.25;0.25;15.70;99.90;;;;;;5079134;28;9768;-52
2022/10/18 07:07:06;;;;;;;;;0.75;0.75;15.90;99.90;;;;;;5063476;27;9609;-57
2022/10/18 07:09:36;;;;;;;;;0.75;0.75;15.90;99.90;;;;;;5097386;27;9556;-56
2022/10/18 07:12:06;;;;;;;;;1.00;1.00;15.90;99.90;;;;;;5093615;27;9560;-52
2022/10/18 07:14:36;;;;;;;;;1.00;1.00;15.80;99.90;;;;;;5096944;27;9653;-54
2022/10/18 07:17:07;;;;;;;;;1.00;1.00;15.90;99.90;;;;;;5095982;27;9540;-56
2022/10/18 07:19:38;;;;;;;;;1.00;1.00;15.80;99.90;;;;;;5094187;28;9603;-53
2022/10/18 07:22:09;;;;;;;;;1.00;1.00;15.70;99.90;;;;;;5099101;27;9775;-55
2022/10/18 07:24:40;;;;;;;;;1.00;1.00;15.70;99.90;;;;;;5098181;27;9629;-56
2022/10/18 07:27:11;;;;;;;;;0.00;0.00;15.80;99.90;;;;;;5081016;27;9518;-57
2022/10/18 07:29:41;;;;;;;;;1.00;1.00;16.00;99.90;;;;;;5097785;27;9593;-54
2022/10/18 07:32:13;;;;;;;;;1.75;1.75;15.90;99.90;;;;;;5077694;28;9915;-59
2022/10/18 07:34:44;;;;;;;;;1.00;1.00;15.80;99.90;;;;;;5075212;28;10013;-56
2022/10/18 07:37:14;;;;;;;;;0.00;0.00;15.70;99.90;;;;;;5079619;27;9591;-57
2022/10/18 07:39:45;;;;;;;;;1.00;1.00;15.70;99.90;;;;;;5094737;27;9900;-57
2022/10/18 07:42:18;;;;;;;;;0.00;0.00;15.70;99.90;;;;;;5080661;27;9607;-55
2022/10/18 07:44:47;;;;;;;;;1.00;1.00;15.80;99.90;;;;;;5095369;27;9623;-54
2022/10/18 07:47:20;;;;;;;;;1.00;1.00;15.60;99.90;;;;;;5094151;27;10647;-52
2022/10/18 07:49:52;;;;;;;;;0.00;0.00;15.70;99.90;;;;;;5098849;27;9692;-53
2022/10/18 07:52:22;;;;;;;;;1.25;1.25;15.80;99.90;;;;;;5077419;28;9510;-54
2022/10/18 07:54:52;;;;;;;;;1.00;1.00;15.60;99.90;;;;;;5088857;27;9866;-49
2022/10/18 07:57:24;;;;;;;;;1.00;1.00;15.60;99.90;;;;;;5097634;27;10489;-56
2022/10/18 07:59:56;;;;;;;;;0.00;0.00;15.50;99.90;;;;;;5093955;27;9781;-56
2022/10/18 08:02:26;;;;;;;;;0.25;0.25;15.40;99.90;;;;;;5068172;28;9751;-54
2022/10/18 08:04:55;;;;;;;;;1.00;1.00;15.50;99.90;;;;;;5095290;28;9671;-50
2022/10/18 08:07:25;;;;;;;;;0.50;0.50;15.60;99.90;;;;;;5082145;27;9765;-50
2022/10/18 08:09:58;;;;;;;;;1.75;1.75;15.60;99.90;;;;;;5094584;28;9667;-51
2022/10/18 08:12:31;;;;;;;;;0.75;0.75;15.30;99.90;;;;;;5097635;27;9581;-53
2022/10/18 08:15:03;;;;;;;;;0.50;0.50;15.40;99.90;;;;;;5095584;28;9793;-55
2022/10/18 08:17:35;;;;;;;;;0.00;0.00;15.50;99.90;;;;;;5080801;27;10581;-52
2022/10/18 08:20:07;;;;;;;;;0.00;0.00;15.50;99.90;;;;;;5099249;27;9898;-51
2022/10/18 08:22:53;;;;;;;;;0.25;0.25;15.40;99.90;;;;;;5097156;27;9818;-54
2022/10/18 08:25:29;;;;;;;;;0.00;0.00;15.70;99.90;;;;;;5081748;27;9738;-56
2022/10/18 08:28:01;;;;;;;;;0.00;0.00;15.30;99.90;;;;;;5096485;27;9883;-53
2022/10/18 08:30:30;;;;;;;;;1.75;0.75;15.20;99.90;;;;;;5074037;28;9850;-56
2022/10/18 08:32:59;;;;;;;;;0.75;0.75;15.30;99.90;;;;;;5094453;27;10042;-56
2022/10/18 08:35:30;;;;;;;;;0.00;0.00;15.50;99.90;;;;;;5097784;28;9992;-54
2022/10/18 08:38:02;;;;;;;;;0.00;0.00;15.60;99.90;;;;;;5085185;27;10034;-54
2022/10/18 08:40:34;;;;;;;;;1.25;1.25;15.50;99.90;;;;;;5092869;28;9768;-56
2022/10/18 08:43:16;;;;;;;;;1.75;1.75;15.40;99.90;;;;;;5100513;27;10088;-56
2022/10/18 08:45:54;;;;;;;;;1.00;1.00;15.50;99.90;;;;;;5091600;28;10182;-56
2022/10/18 08:48:45;;;;;;;;;0.00;0.00;15.30;99.90;;;;;;5092796;27;9972;-56
2022/10/18 08:51:25;;;;;;;;;0.00;0.00;15.40;99.90;;;;;;5087910;27;9918;-51
2022/10/18 08:54:05;;;;;;;;;0.00;0.00;15.40;99.90;;;;;;5094273;27;9900;-54
2022/10/18 08:56:42;;;;;;;;;0.75;0.75;15.60;99.90;;;;;;5094686;28;9832;-52
2022/10/18 08:59:13;;;;;;;;;1.00;1.00;15.60;99.90;;;;;;5091885;27;9893;-60
2022/10/18 09:02:02;;;;;;;;;0.00;0.00;15.40;99.90;;;;;;5095568;27;10562;-54
2022/10/18 09:04:55;;;;;;;;;0.75;0.75;15.60;99.90;;;;;;5091437;28;9742;-55
2022/10/18 09:07:41;;;;;;;;;1.75;0.00;15.50;99.90;;;;;;5094166;27;9921;-55
2022/10/18 09:10:25;;;;;;;;;0.75;0.75;15.50;99.90;;;;;;5094880;28;10673;-57
2022/10/18 09:12:59;;;;;;;;;0.25;0.25;15.30;99.90;;;;;;5078364;28;10034;-51
2022/10/18 09:15:57;;;;;;;;;0.25;0.25;15.40;99.90;;;;;;5097431;27;10130;-51
2022/10/18 09:19:01;;;;;;;;;0.25;0.25;15.60;99.90;;;;;;5097104;27;10068;-53
2022/10/18 09:21:51;;;;;;;;;1.00;1.00;15.50;99.90;;;;;;5089682;28;10001;-53
2022/10/18 09:24:39;;;;;;;;;0.50;0.50;15.30;99.90;;;;;;5100952;28;10059;-53
2022/10/18 09:27:15;;;;;;;;;0.00;0.00;15.40;99.90;;;;;;5097544;28;10473;-56
2022/10/18 09:30:32;;;;;;;;;0.00;0.00;15.20;99.90;;;;;;5096278;28;10622;-56
2022/10/18 09:33:23;;;;;;;;;1.00;1.00;15.20;99.90;;;;;;5100371;27;9877;-55
2022/10/18 09:36:05;;;;;;;;;0.50;0.50;15.30;99.90;;;;;;5097468;27;9934;-54
2022/10/18 09:38:48;;;;;;;;;0.50;0.50;15.20;99.90;;;;;;5090643;28;10647;-55
2022/10/18 09:41:28;;;;;;;;;0.75;0.25;15.10;99.90;;;;;;5090642;27;10091;-50
2022/10/18 09:44:20;;;;;;;;;0.50;0.50;15.10;99.90;;;;;;5096627;28;10142;-52
2022/10/18 09:47:15;;;;;;;;;0.50;0.50;15.00;99.90;;;;;;5090861;28;10057;-52
2022/10/18 09:50:07;;;;;;;;;0.00;0.00;15.20;99.90;;;;;;5093642;27;10225;-53
2022/10/18 09:52:44;;;;;;;;;1.00;1.00;15.20;99.90;;;;;;5095269;28;10228;-57
2022/10/18 09:55:28;;;;;;;;;0.00;0.00;15.20;99.90;;;;;;5096888;28;10077;-55
2022/10/18 09:58:01;;;;;;;;;0.00;0.00;15.10;99.90;;;;;;5093365;27;10116;-55
2022/10/18 10:00:52;;;;;;;;;0.25;0.25;15.20;99.90;;;;;;5099293;27;9520;-56
2022/10/18 10:03:25;;;;;;;;;0.00;0.00;15.00;99.90;;;;;;5084452;28;9830;-57
2022/10/18 10:06:13;;;;;;;;;0.00;0.00;15.10;99.90;;;;;;5083309;28;10008;-57
2022/10/18 10:08:49;;;;;;;;;0.00;0.00;15.10;99.90;;;;;;5100279;27;10088;-54
2022/10/18 10:11:32;;;;;;;;;0.50;0.50;15.00;99.90;;;;;;5083169;27;10065;-54
2022/10/18 10:14:14;;;;;;;;;1.00;1.00;15.10;99.90;;;;;;5099208;27;9823;-57
2022/10/18 10:17:02;;;;;;;;;0.25;0.25;15.10;99.90;;;;;;5096686;28;10103;-56
2022/10/18 10:20:01;;;;;;;;;0.25;0.25;15.00;99.90;;;;;;5101919;27;9984;-57
2022/10/18 10:22:40;;;;;;;;;0.75;0.75;15.10;99.90;;;;;;5092873;27;10060;-54
2022/10/18 10:25:30;;;;;;;;;0.00;0.00;15.20;99.90;;;;;;5096778;27;10069;-53
2022/10/18 10:28:14;;;;;;;;;0.00;0.00;15.10;99.90;;;;;;5090951;27;9987;-55
2022/10/18 10:30:44;;;;;;;;;1.00;1.00;15.00;99.90;;;;;;5093509;27;10175;-58
2022/10/18 10:33:36;;;;;;;;;0.75;0.75;14.90;99.90;;;;;;5091971;28;10052;-56
2022/10/18 10:36:20;;;;;;;;;0.25;0.25;14.90;99.90;;;;;;5079854;27;10146;-54
2022/10/18 10:39:17;;;;;;;;;0.00;0.00;15.00;99.90;;;;;;5095541;27;10860;-53
2022/10/18 10:42:13;;;;;;;;;2.00;2.00;14.80;99.90;;;;;;5096682;28;10098;-52
2022/10/18 10:44:56;;;;;;;;;1.00;1.00;14.80;99.90;;;;;;5093032;27;10067;-50
2022/10/18 10:47:33;;;;;;;;;0.00;0.00;14.60;99.90;;;;;;5094827;27;10155;-52
2022/10/18 10:50:11;;;;;;;;;1.00;1.00;14.40;99.90;;;;;;5086741;27;9873;-53
2022/10/18 10:52:46;;;;;;;;;0.00;0.00;14.60;99.90;;;;;;5082028;28;10285;-56
2022/10/18 10:55:26;;;;;;;;;0.00;0.00;14.60;99.90;;;;;;5097226;27;11061;-57
2022/10/18 10:58:04;;;;;;;;;1.75;1.00;14.70;99.90;;;;;;5093506;27;10315;-56
2022/10/18 11:00:44;;;;;;;;;0.50;0.50;14.50;99.90;;;;;;5089433;27;10225;-55
2022/10/18 11:03:14;;;;;;;;;0.00;0.00;14.60;99.90;;;;;;5095338;27;10092;-55
2022/10/18 11:05:59;;;;;;;;;0.00;0.00;14.70;99.90;;;;;;5075749;27;10289;-56
2022/10/18 11:08:42;;;;;;;;;1.00;1.00;14.60;99.90;;;;;;5095623;27;10183;-57
2022/10/18 11:11:27;;;;;;;;;0.00;0.00;14.70;99.90;;;;;;5097007;27;11204;-53
2022/10/18 11:14:05;;;;;;;;;0.25;0.25;14.70;99.90;;;;;;5091944;27;10130;-58
2022/10/18 11:17:11;;;;;;;;;0.00;0.00;14.60;99.90;;;;;;5092332;27;10288;-52
2022/10/18 11:20:10;;;;;;;;;0.75;0.75;14.70;99.90;;;;;;5091711;27;10823;-53
2022/10/18 11:22:50;;;;;;;;;1.25;0.50;14.70;99.90;;;;;;5078239;28;10331;-56
2022/10/18 11:25:26;;;;;;;;;1.00;1.00;14.70;99.90;;;;;;5098066;27;10357;-55
2022/10/18 11:28:10;;;;;;;;;0.00;0.00;14.60;99.90;;;;;;5091749;27;10265;-52
2022/10/18 11:31:26;;;;;;;;;1.00;1.00;14.60;99.90;;;;;;5095883;27;10205;-57
2022/10/18 11:34:16;;;;;;;;;0.00;0.00;14.60;99.90;;;;;;5033776;28;10406;-56
2022/10/18 11:37:32;;;;;;;;;1.00;1.00;14.50;99.90;;;;;;5032845;28;10093;-51
2022/10/18 11:40:36;;;;;;;;;1.75;1.75;14.50;99.90;;;;;;5027541;28;10433;-53
2022/10/18 11:43:25;;;;;;;;;0.00;0.00;14.20;99.90;;;;;;5030053;28;10213;-54
2022/10/18 11:46:43;;;;;;;;;0.00;0.00;14.40;99.90;;;;;;5094943;27;10834;-55
2022/10/18 11:49:19;;;;;;;;;0.00;0.00;14.50;99.90;;;;;;5079538;28;10365;-55
2022/10/18 11:52:11;;;;;;;;;0.00;0.00;14.10;99.90;;;;;;5073256;28;10265;-56
2022/10/18 11:55:23;;;;;;;;;0.00;0.00;14.20;99.90;;;;;;5098532;27;10344;-57
2022/10/18 11:58:25;;;;;;;;;0.00;0.00;14.40;99.90;;;;;;5057996;28;10269;-53
2022/10/18 12:01:21;;;;;;;;;1.00;1.00;14.40;99.90;;;;;;5056750;28;10351;-54
2022/10/18 12:04:04;;;;;;;;;0.75;0.75;14.40;99.90;;;;;;5043723;28;10511;-54
2022/10/18 12:06:39;;;;;;;;;1.00;1.00;14.30;99.90;;;;;;5053324;28;10397;-53
2022/10/18 12:09:31;;;;;;;;;0.00;0.00;14.10;99.90;;;;;;5054469;28;10373;-54
2022/10/18 12:12:33;;;;;;;;;0.75;0.75;14.10;99.90;;;;;;5051836;28;10183;-52
2022/10/18 12:15:18;;;;;;;;;0.00;0.00;14.10;99.90;;;;;;5051447;28;10504;-53
2022/10/18 12:17:56;;;;;;;;;0.00;0.00;14.20;99.90;;;;;;5052400;28;10603;-55
2022/10/18 12:20:39;;;;;;;;;1.50;0.75;14.10;99.90;;;;;;5051854;28;10502;-54
2022/10/18 12:23:35;;;;;;;;;1.00;1.00;14.30;99.90;;;;;;5055314;28;12101;-55
2022/10/18 12:26:10;;;;;;;;;1.00;1.00;13.90;99.90;;;;;;5043409;28;10371;-56
2022/10/18 12:29:04;;;;;;;;;1.00;1.00;13.90;99.90;;;;;;5050700;28;10673;-56
2022/10/18 12:31:44;;;;;;;;;0.75;0.75;13.90;99.90;;;;;;5055315;28;10583;-57
2022/10/18 12:34:35;;;;;;;;;0.50;0.50;13.90;99.90;;;;;;5060127;28;10599;-57
2022/10/18 12:37:31;;;;;;;;;2.00;2.00;14.00;99.90;;;;;;5057142;28;10534;-54
2022/10/18 12:40:22;;;;;;;;;1.00;1.00;13.80;99.90;;;;;;5055215;28;10449;-53
2022/10/18 12:42:57;;;;;;;;;3.50;2.00;13.80;99.90;;;;;;5055490;28;10603;-54
2022/10/18 12:45:37;;;;;;;;;2.75;1.00;14.00;99.90;;;;;;5056938;28;10677;-57
2022/10/18 12:48:22;;;;;;;;;0.75;0.75;13.90;99.90;;;;;;5056596;28;10714;-56
2022/10/18 12:51:06;;;;;;;;;2.00;2.00;13.90;99.90;;;;;;5056945;28;10860;-56
2022/10/18 12:53:38;;;;;;;;;2.50;1.00;14.00;99.90;;;;;;5050791;28;10617;-56
2022/10/18 12:56:28;;;;;;;;;1.00;1.00;13.90;99.90;;;;;;5064466;27;10572;-56
2022/10/18 12:59:18;;;;;;;;;1.50;1.50;14.10;99.90;;;;;;5088989;28;10725;-57
2022/10/18 13:01:53;;;;;;;;;1.00;1.00;14.10;99.90;;;;;;5068391;28;10697;-55
2022/10/18 13:04:31;;;;;;;;;1.50;1.50;13.90;99.90;;;;;;5094314;27;10446;-54
2022/10/18 13:07:02;;;;;;;;;0.50;0.50;13.80;99.90;;;;;;5092610;27;10587;-53
2022/10/18 13:09:40;;;;;;;;;2.25;2.25;13.90;99.90;;;;;;5095913;27;10714;-56
2022/10/18 13:12:13;;;;;;;;;2.00;2.00;13.90;99.90;;;;;;5089995;27;10816;-57
2022/10/18 13:15:19;;;;;;;;;3.00;3.00;13.80;99.90;;;;;;5097346;28;10881;-58
2022/10/18 13:18:17;;;;;;;;;3.00;3.00;14.10;99.90;;;;;;5078335;28;10956;-55
2022/10/18 13:21:09;;;;;;;;;3.25;3.25;14.00;99.90;;;;;;5092504;27;11030;-54
2022/10/18 13:24:02;;;;;;;;;2.25;2.25;14.10;99.90;;;;;;5074901;28;10943;-57
2022/10/18 13:26:45;;;;;;;;;2.50;2.50;13.90;99.90;;;;;;5076481;28;11014;-55
2022/10/18 13:29:28;;;;;;;;;3.50;3.50;13.90;99.90;;;;;;5096882;27;11375;-54
2022/10/18 13:32:26;;;;;;;;;3.00;3.00;14.10;99.90;;;;;;5086223;27;11056;-55
2022/10/18 13:34:58;;;;;;;;;2.00;2.00;14.20;99.90;;;;;;5093826;27;11270;-57
2022/10/18 13:37:31;;;;;;;;;2.00;2.00;14.20;99.90;;;;;;5094146;27;10872;-57
2022/10/18 13:40:24;;;;;;;;;2.25;2.25;14.00;99.90;;;;;;5089316;27;10757;-56
2022/10/18 13:42:55;;;;;;;;;3.00;3.00;14.20;99.90;;;;;;5089812;27;11022;-54
2022/10/18 13:45:32;;;;;;;;;3.00;3.00;14.20;99.90;;;;;;5097347;27;11070;-56
2022/10/18 13:48:26;;;;;;;;;2.50;2.50;14.20;99.90;;;;;;5096935;27;10978;-56